createdAt,value
2022-12-04T00:01:19.347Z,18.57
2022-12-04T00:03:47.118Z,19.30
2022-12-04T00:06:17.416Z,20.83
2022-12-04T00:08:45.976Z,17.90
2022-12-04T00:11:16.683Z,17.60
2022-12-04T00:13:44.400Z,17.77
2022-12-04T00:16:15.175Z,19.67
2022-12-04T00:18:44.336Z,17.67
2022-12-04T00:21:14.120Z,17.40
2022-12-04T00:23:42.413Z,19.90
2022-12-04T00:26:11.769Z,20.83
2022-12-04T00:28:40.253Z,19.97
2022-12-04T00:31:09.612Z,21.07
2022-12-04T00:33:38.274Z,20.90
2022-12-04T00:36:10.091Z,18.27
2022-12-04T00:38:38.557Z,20.53
2022-12-04T00:41:06.717Z,17.37
2022-12-04T00:43:34.653Z,19.17
2022-12-04T00:46:02.689Z,19.67
2022-12-04T00:48:30.484Z,20.00
2022-12-04T00:51:03.181Z,19.07
2022-12-04T00:53:33.005Z,20.27
2022-12-04T00:56:04.076Z,21.13
2022-12-04T00:58:32.080Z,17.93
2022-12-04T01:01:03.654Z,20.63
2022-12-04T01:03:31.570Z,19.00
2022-12-04T01:05:59.604Z,19.63
2022-12-04T01:08:27.573Z,20.53
2022-12-04T01:10:56.666Z,19.57
2022-12-04T01:13:25.565Z,19.10
2022-12-04T01:15:53.601Z,20.97
2022-12-04T01:18:21.368Z,21.27
2022-12-04T01:20:50.529Z,21.17
2022-12-04T01:23:19.254Z,20.57
2022-12-04T01:25:54.188Z,19.33
2022-12-04T01:28:23.742Z,20.57
2022-12-04T01:31:00.168Z,20.23
2022-12-04T01:33:28.095Z,21.20
2022-12-04T01:35:56.581Z,22.17
2022-12-04T01:38:24.968Z,22.47
2022-12-04T01:40:53.376Z,20.00
2022-12-04T01:43:23.665Z,20.50
2022-12-04T01:45:53.783Z,19.90
2022-12-04T01:48:26.419Z,21.93
2022-12-04T01:50:59.556Z,20.53
2022-12-04T01:53:28.050Z,20.97
2022-12-04T01:55:56.678Z,21.77
2022-12-04T01:58:30.204Z,20.00
2022-12-04T02:01:07.929Z,19.87
2022-12-04T02:03:38.244Z,20.57
2022-12-04T02:06:06.446Z,19.23
2022-12-04T02:08:35.300Z,20.60
2022-12-04T02:11:13.689Z,18.63
2022-12-04T02:13:53.946Z,17.47
2022-12-04T02:16:30.190Z,20.73
2022-12-04T02:19:04.061Z,18.67
2022-12-04T02:21:36.700Z,16.70
2022-12-04T02:24:22.593Z,19.97
2022-12-04T02:26:54.728Z,19.90
2022-12-04T02:29:32.794Z,18.00
2022-12-04T02:32:07.392Z,22.30
2022-12-04T02:34:42.808Z,20.07
2022-12-04T02:37:17.876Z,18.80
2022-12-04T02:39:53.331Z,18.47
2022-12-04T02:42:31.549Z,20.07
2022-12-04T02:45:04.634Z,21.23
2022-12-04T02:47:34.051Z,19.07
2022-12-04T02:50:05.861Z,19.77
2022-12-04T02:52:37.979Z,18.50
2022-12-04T02:55:09.672Z,16.90
2022-12-04T02:57:42.342Z,18.10
2022-12-04T03:00:12.796Z,22.03
2022-12-04T03:02:47.161Z,18.93
2022-12-04T03:05:19.717Z,18.87
2022-12-04T03:07:53.703Z,17.27
2022-12-04T03:10:26.263Z,19.80
2022-12-04T03:12:57.630Z,17.23
2022-12-04T03:15:31.288Z,18.07
2022-12-04T03:18:03.818Z,17.20
2022-12-04T03:20:34.197Z,17.50
2022-12-04T03:23:10.032Z,18.70
2022-12-04T03:25:47.091Z,17.87
2022-12-04T03:28:23.346Z,16.33
2022-12-04T03:30:58.923Z,18.23
2022-12-04T03:33:32.527Z,20.57
2022-12-04T03:36:08.323Z,16.63
2022-12-04T03:38:42.502Z,19.10
2022-12-04T03:41:18.992Z,17.17
2022-12-04T03:43:51.989Z,18.07
2022-12-04T03:46:28.489Z,16.70
2022-12-04T03:49:03.218Z,17.07
2022-12-04T03:51:36.154Z,16.57
2022-12-04T03:54:09.502Z,13.77
2022-12-04T03:56:42.094Z,16.83
2022-12-04T03:59:13.093Z,14.10
2022-12-04T04:01:47.585Z,14.67
2022-12-04T04:04:19.261Z,15.03
2022-12-04T04:06:54.560Z,16.07
2022-12-04T04:09:25.897Z,15.17
2022-12-04T04:11:58.033Z,14.67
2022-12-04T04:14:46.834Z,15.13
2022-12-04T04:17:39.070Z,15.10
2022-12-04T04:20:31.720Z,12.83
2022-12-04T04:23:19.754Z,13.53
2022-12-04T04:25:48.373Z,13.70
2022-12-04T04:28:30.588Z,13.73
2022-12-04T04:31:09.845Z,12.97
2022-12-04T04:33:47.485Z,13.40
2022-12-04T04:36:22.664Z,12.90
2022-12-04T04:38:57.797Z,13.63
2022-12-04T04:41:32.012Z,12.80
2022-12-04T04:44:09.548Z,12.53
2022-12-04T04:46:42.855Z,12.87
2022-12-04T04:49:15.981Z,11.90
2022-12-04T04:51:45.203Z,13.27
2022-12-04T04:54:15.713Z,12.63
2022-12-04T04:56:45.507Z,14.07
2022-12-04T04:59:14.070Z,12.37
2022-12-04T05:01:43.827Z,11.63
2022-12-04T05:04:13.183Z,12.13
2022-12-04T05:06:40.928Z,13.43
2022-12-04T05:09:08.681Z,13.97
2022-12-04T05:11:36.465Z,14.17
2022-12-04T05:14:05.893Z,13.27
2022-12-04T05:16:33.780Z,11.23
2022-12-04T05:19:19.313Z,12.43
2022-12-04T05:21:48.395Z,11.70
2022-12-04T05:24:16.128Z,13.17
2022-12-04T05:26:43.909Z,12.20
2022-12-04T05:29:11.611Z,12.57
2022-12-04T05:31:39.396Z,11.37
2022-12-04T05:34:07.247Z,11.07
2022-12-04T05:36:34.984Z,10.87
2022-12-04T05:39:04.247Z,12.73
2022-12-04T05:41:31.942Z,11.33
2022-12-04T05:43:59.746Z,10.10
2022-12-04T05:46:27.471Z,11.73
2022-12-04T05:48:55.245Z,12.63
2022-12-04T05:51:22.957Z,11.77
2022-12-04T05:53:52.747Z,10.97
2022-12-04T05:56:22.045Z,11.37
2022-12-04T05:58:49.828Z,11.10
2022-12-04T06:01:19.839Z,10.93
2022-12-04T06:03:47.745Z,11.63
2022-12-04T06:06:21.523Z,11.17
2022-12-04T06:08:50.266Z,10.37
2022-12-04T06:11:20.914Z,10.50
2022-12-04T06:13:50.283Z,10.20
2022-12-04T06:16:19.780Z,10.30
2022-12-04T06:18:51.604Z,9.93
2022-12-04T06:21:20.745Z,9.17
2022-12-04T06:23:48.769Z,9.27
2022-12-04T06:26:16.970Z,8.60
2022-12-04T06:28:45.208Z,9.77
2022-12-04T06:31:18.977Z,10.33
2022-12-04T06:33:47.178Z,10.60
2022-12-04T06:36:17.629Z,7.77
2022-12-04T06:38:45.884Z,9.67
2022-12-04T06:41:15.360Z,8.93
2022-12-04T06:43:43.585Z,10.20
2022-12-04T06:46:13.281Z,8.83
2022-12-04T06:48:43.109Z,10.97
2022-12-04T06:51:13.804Z,9.70
2022-12-04T06:53:42.566Z,12.73
2022-12-04T06:56:17.806Z,12.13
2022-12-04T06:58:47.928Z,12.53
2022-12-04T07:01:17.971Z,11.23
2022-12-04T07:03:51.683Z,12.50
2022-12-04T07:06:21.533Z,13.57
2022-12-04T07:08:54.334Z,12.43
2022-12-04T07:11:23.192Z,13.73
2022-12-04T07:13:53.144Z,11.00
2022-12-04T07:16:23.150Z,12.07
2022-12-04T07:18:54.254Z,11.10
2022-12-04T07:21:23.639Z,9.57
2022-12-04T07:23:52.614Z,11.43
2022-12-04T07:26:21.591Z,12.37
2022-12-04T07:28:50.024Z,11.40
2022-12-04T07:31:20.508Z,11.57
2022-12-04T07:33:49.385Z,12.57
2022-12-04T07:36:22.379Z,11.53
2022-12-04T07:38:51.144Z,12.37
2022-12-04T07:41:22.306Z,12.17
2022-12-04T07:43:50.036Z,11.03
2022-12-04T07:46:20.800Z,9.83
2022-12-04T07:48:48.677Z,8.97
2022-12-04T07:51:19.915Z,10.23
2022-12-04T07:53:48.244Z,11.23
2022-12-04T07:56:17.391Z,10.73
2022-12-04T07:58:45.419Z,11.53
2022-12-04T08:01:16.265Z,11.43
2022-12-04T08:03:48.556Z,11.37
2022-12-04T08:06:17.526Z,12.23
2022-12-04T08:08:47.132Z,11.43
2022-12-04T08:11:16.980Z,11.10
2022-12-04T08:13:45.205Z,12.80
2022-12-04T08:16:14.022Z,13.00
2022-12-04T08:18:46.536Z,11.57
2022-12-04T08:21:15.901Z,10.97
2022-12-04T08:23:44.722Z,11.73
2022-12-04T08:26:14.404Z,12.13
2022-12-04T08:28:45.269Z,13.03
2022-12-04T08:31:15.088Z,10.90
2022-12-04T08:33:44.160Z,12.20
2022-12-04T08:36:14.035Z,11.00
2022-12-04T08:38:42.279Z,12.97
2022-12-04T08:41:14.387Z,12.63
2022-12-04T08:43:42.600Z,13.40
2022-12-04T08:46:13.078Z,12.43
2022-12-04T08:48:41.426Z,10.10
2022-12-04T08:51:14.337Z,12.20
2022-12-04T08:53:42.950Z,12.60
2022-12-04T08:56:11.227Z,12.80
2022-12-04T08:58:40.596Z,11.90
2022-12-04T09:01:10.082Z,11.80
2022-12-04T09:03:38.440Z,10.33
2022-12-04T09:06:07.782Z,12.30
2022-12-04T09:08:36.589Z,11.90
2022-12-04T09:11:05.484Z,12.00
2022-12-04T09:13:33.258Z,10.67
2022-12-04T09:16:05.531Z,9.47
2022-12-04T09:18:33.661Z,11.87
2022-12-04T09:21:03.431Z,13.13
2022-12-04T09:23:31.198Z,10.83
2022-12-04T09:25:59.046Z,12.23
2022-12-04T09:28:27.167Z,14.20
2022-12-04T09:30:59.816Z,11.00
2022-12-04T09:33:30.529Z,14.33
2022-12-04T09:36:00.521Z,12.50
2022-12-04T09:38:28.619Z,12.40
2022-12-04T09:41:03.703Z,13.07
2022-12-04T09:43:35.581Z,12.70
2022-12-04T09:46:11.245Z,12.60
2022-12-04T09:48:43.970Z,12.50
2022-12-04T09:51:18.657Z,12.07
2022-12-04T09:53:49.810Z,11.37
2022-12-04T09:56:20.772Z,12.20
2022-12-04T09:58:52.095Z,11.80
2022-12-04T10:01:24.341Z,11.97
2022-12-04T10:03:56.896Z,13.97
2022-12-04T10:06:33.200Z,28.80
2022-12-04T10:09:04.796Z,12.50
2022-12-04T10:11:49.638Z,12.17
2022-12-04T10:14:38.780Z,10.47
2022-12-04T10:17:27.838Z,12.43
2022-12-04T10:20:13.652Z,10.03
2022-12-04T10:22:54.651Z,11.57
2022-12-04T10:25:24.015Z,13.40
2022-12-04T10:27:57.007Z,11.00
2022-12-04T10:30:27.506Z,12.80
2022-12-04T10:33:00.852Z,12.97
2022-12-04T10:35:32.237Z,11.00
2022-12-04T10:38:04.325Z,12.50
2022-12-04T10:40:36.732Z,11.40
2022-12-04T10:43:12.294Z,12.43
2022-12-04T10:45:40.087Z,13.10
2022-12-04T10:48:17.589Z,11.67
2022-12-04T10:50:46.709Z,13.90
2022-12-04T10:53:17.355Z,13.57
2022-12-04T10:55:45.221Z,13.77
2022-12-04T10:58:17.560Z,11.43
2022-12-04T11:00:46.775Z,13.50
2022-12-04T11:03:25.925Z,11.90
2022-12-04T11:05:57.727Z,11.60
2022-12-04T11:08:31.198Z,11.63
2022-12-04T11:11:02.215Z,11.37
2022-12-04T11:13:30.593Z,10.63
2022-12-04T11:15:59.352Z,11.43
2022-12-04T11:18:29.197Z,11.77
2022-12-04T11:21:01.669Z,10.50
2022-12-04T11:23:33.136Z,11.90
2022-12-04T11:26:05.803Z,12.83
2022-12-04T11:28:43.079Z,12.73
2022-12-04T11:31:17.725Z,11.20
2022-12-04T11:33:49.084Z,10.33
2022-12-04T11:36:24.075Z,10.67
2022-12-04T11:38:54.360Z,10.77
2022-12-04T11:41:28.107Z,11.33
2022-12-04T11:44:00.229Z,11.20
2022-12-04T11:46:31.687Z,11.40
2022-12-04T11:48:59.980Z,11.00
2022-12-04T11:51:43.549Z,11.80
2022-12-04T11:54:23.612Z,11.00
2022-12-04T11:57:00.195Z,9.73
2022-12-04T11:59:51.921Z,13.50
2022-12-04T12:02:45.603Z,13.03
2022-12-04T12:05:38.139Z,13.53
2022-12-04T12:08:21.980Z,11.30
2022-12-04T12:11:00.624Z,12.83
2022-12-04T12:13:36.411Z,13.00
2022-12-04T12:16:16.795Z,10.40
2022-12-04T12:18:59.257Z,10.67
2022-12-04T12:21:29.031Z,11.50
2022-12-04T12:24:18.363Z,11.17
2022-12-04T12:26:55.185Z,10.73
2022-12-04T12:29:44.138Z,13.53
2022-12-04T12:32:30.379Z,10.47
2022-12-04T12:34:59.257Z,10.73
2022-12-04T12:37:32.090Z,11.20
2022-12-04T12:40:07.609Z,11.77
2022-12-04T12:42:39.691Z,11.90
2022-12-04T12:45:27.650Z,13.40
2022-12-04T12:48:00.166Z,13.03
2022-12-04T12:50:36.883Z,12.80
2022-12-04T12:53:19.842Z,11.40
2022-12-04T12:56:01.949Z,11.63
2022-12-04T12:58:39.626Z,12.70
2022-12-04T13:01:14.446Z,11.67
2022-12-04T13:03:51.478Z,11.87
2022-12-04T13:06:24.353Z,13.83
2022-12-04T13:09:00.445Z,10.50
2022-12-04T13:11:32.213Z,11.83
2022-12-04T13:14:02.409Z,11.73
2022-12-04T13:16:36.991Z,12.77
2022-12-04T13:19:13.447Z,10.80
2022-12-04T13:21:46.077Z,12.00
2022-12-04T13:24:43.439Z,11.97
2022-12-04T13:27:21.267Z,10.97
2022-12-04T13:30:02.780Z,13.13
2022-12-04T13:32:55.500Z,12.07
2022-12-04T13:35:37.268Z,11.70
2022-12-04T13:38:24.013Z,12.27
2022-12-04T13:40:55.022Z,12.97
2022-12-04T13:43:34.645Z,13.33
2022-12-04T13:46:05.604Z,13.20
2022-12-04T13:48:37.510Z,13.30
2022-12-04T13:51:21.573Z,15.10
2022-12-04T13:54:00.953Z,14.90
2022-12-04T13:56:30.612Z,11.90
2022-12-04T13:59:05.485Z,12.43
2022-12-04T14:01:39.967Z,10.93
2022-12-04T14:04:08.494Z,12.37
2022-12-04T14:06:39.382Z,11.60
2022-12-04T14:09:10.276Z,11.53
2022-12-04T14:11:46.096Z,12.73
2022-12-04T14:14:26.643Z,12.00
2022-12-04T14:16:55.586Z,11.87
2022-12-04T14:19:30.617Z,13.67
2022-12-04T14:21:58.599Z,13.77
2022-12-04T14:24:37.488Z,12.70
2022-12-04T14:27:34.863Z,11.77
2022-12-04T14:30:04.137Z,12.70
2022-12-04T14:32:35.051Z,13.93
2022-12-04T14:35:03.750Z,13.27
2022-12-04T14:37:36.417Z,11.03
2022-12-04T14:40:07.259Z,12.67
2022-12-04T14:42:39.035Z,12.50
2022-12-04T14:45:20.883Z,13.57
2022-12-04T14:47:59.694Z,12.20
2022-12-04T14:50:33.056Z,12.60
2022-12-04T14:53:10.068Z,12.63
2022-12-04T14:55:47.082Z,12.43
2022-12-04T14:58:34.585Z,13.53
2022-12-04T15:01:04.894Z,13.87
2022-12-04T15:03:36.901Z,13.40
2022-12-04T15:06:08.076Z,16.07
2022-12-04T15:08:36.266Z,11.77
2022-12-04T15:11:24.689Z,14.53
2022-12-04T15:13:53.914Z,12.33
2022-12-04T15:16:23.501Z,14.80
2022-12-04T15:18:55.509Z,12.43
2022-12-04T15:21:24.374Z,13.03
2022-12-04T15:23:52.098Z,14.17
2022-12-04T15:26:22.972Z,14.97
2022-12-04T15:28:55.349Z,13.67
2022-12-04T15:31:26.552Z,14.27
2022-12-04T15:33:58.271Z,13.00
2022-12-04T15:36:45.759Z,13.27
2022-12-04T15:39:18.057Z,14.37
2022-12-04T15:41:45.775Z,16.07
2022-12-04T15:44:27.669Z,15.20
2022-12-04T15:46:57.131Z,14.47
2022-12-04T15:49:28.101Z,12.17
2022-12-04T15:52:06.665Z,15.10
2022-12-04T15:54:36.185Z,14.40
2022-12-04T15:57:07.602Z,12.53
2022-12-04T15:59:37.189Z,15.17
2022-12-04T16:02:08.917Z,14.57
2022-12-04T16:04:41.101Z,15.57
2022-12-04T16:07:21.903Z,17.33
2022-12-04T16:09:59.531Z,15.00
2022-12-04T16:12:32.780Z,15.57
2022-12-04T16:15:01.933Z,17.23
2022-12-04T16:17:32.609Z,16.67
2022-12-04T16:20:01.663Z,17.70
2022-12-04T16:22:31.425Z,19.93
2022-12-04T16:24:59.494Z,17.77
2022-12-04T16:27:27.583Z,18.70
2022-12-04T16:29:55.323Z,16.17
2022-12-04T16:32:29.928Z,18.00
2022-12-04T16:34:57.941Z,19.87
2022-12-04T16:37:26.353Z,20.77
2022-12-04T16:39:54.085Z,20.27
2022-12-04T16:42:24.563Z,20.77
2022-12-04T16:44:52.673Z,21.20
2022-12-04T16:47:20.570Z,19.23
2022-12-04T16:49:53.291Z,19.83
2022-12-04T16:52:21.769Z,20.33
2022-12-04T16:54:49.497Z,19.77
2022-12-04T16:57:17.261Z,21.13
2022-12-04T16:59:45.010Z,18.47
2022-12-04T17:02:17.255Z,18.73
2022-12-04T17:04:57.005Z,18.90
2022-12-04T17:07:27.387Z,22.07
2022-12-04T17:09:55.095Z,18.60
2022-12-04T17:12:22.797Z,19.10
2022-12-04T17:14:50.822Z,19.20
2022-12-04T17:17:18.552Z,21.50
2022-12-04T17:19:46.516Z,19.03
2022-12-04T17:22:16.201Z,22.83
2022-12-04T17:24:57.163Z,19.13
2022-12-04T17:27:25.912Z,20.30
2022-12-04T17:29:53.699Z,23.37
2022-12-04T17:32:21.476Z,18.80
2022-12-04T17:34:49.310Z,18.63
2022-12-04T17:37:18.330Z,19.27
2022-12-04T17:39:46.120Z,22.83
2022-12-04T17:42:16.514Z,23.30
2022-12-04T17:44:44.428Z,21.33
2022-12-04T17:47:12.733Z,22.07
2022-12-04T17:49:40.553Z,20.53
2022-12-04T17:52:08.405Z,19.57
2022-12-04T17:54:37.647Z,20.03
2022-12-04T17:57:05.370Z,19.17
2022-12-04T17:59:33.065Z,19.70
2022-12-04T18:02:00.827Z,21.57
2022-12-04T18:04:28.513Z,20.73
2022-12-04T18:06:56.461Z,21.73
2022-12-04T18:09:24.412Z,18.70
2022-12-04T18:11:53.604Z,19.60
2022-12-04T18:14:23.465Z,20.73
2022-12-04T18:16:53.415Z,22.17
2022-12-04T18:19:23.355Z,18.73
2022-12-04T18:21:51.133Z,19.80
2022-12-04T18:24:19.248Z,20.17
2022-12-04T18:26:49.195Z,19.43
2022-12-04T18:29:19.731Z,20.17
2022-12-04T18:31:48.009Z,19.33
2022-12-04T18:34:16.230Z,19.93
2022-12-04T18:36:45.344Z,24.30
2022-12-04T18:39:15.627Z,18.20
2022-12-04T18:41:43.996Z,20.67
2022-12-04T18:44:12.302Z,19.10
2022-12-04T18:46:42.043Z,18.57
2022-12-04T18:49:11.390Z,18.97
2022-12-04T18:51:40.655Z,21.67
2022-12-04T18:54:11.418Z,16.10
2022-12-04T18:56:39.682Z,18.30
2022-12-04T18:59:09.776Z,17.27
2022-12-04T19:01:37.910Z,21.47
2022-12-04T19:04:09.363Z,20.13
2022-12-04T19:06:40.220Z,18.00
2022-12-04T19:09:11.212Z,18.20
2022-12-04T19:11:39.813Z,18.27
2022-12-04T19:14:17.710Z,16.27
2022-12-04T19:16:49.293Z,17.43
2022-12-04T19:19:18.833Z,18.03
2022-12-04T19:21:46.643Z,19.87
2022-12-04T19:24:14.455Z,20.23
2022-12-04T19:26:42.924Z,18.97
2022-12-04T19:29:13.716Z,20.90
2022-12-04T19:31:41.686Z,17.67
2022-12-04T19:34:09.521Z,18.67
2022-12-04T19:36:38.716Z,20.03
2022-12-04T19:39:07.228Z,19.53
2022-12-04T19:41:37.066Z,19.10
2022-12-04T19:44:20.098Z,15.93
2022-12-04T19:46:53.200Z,19.83
2022-12-04T19:49:20.902Z,18.23
2022-12-04T19:51:50.601Z,17.73
2022-12-04T19:54:19.226Z,16.13
2022-12-04T19:56:51.104Z,17.37
2022-12-04T19:59:19.630Z,16.03
2022-12-04T20:01:48.079Z,19.63
2022-12-04T20:04:15.928Z,21.80
2022-12-04T20:06:45.747Z,17.77
2022-12-04T20:09:18.711Z,16.37
2022-12-04T20:11:46.441Z,18.67
2022-12-04T20:14:14.493Z,16.67
2022-12-04T20:16:43.026Z,16.03
2022-12-04T20:19:16.793Z,18.60
2022-12-04T20:21:45.108Z,15.47
2022-12-04T20:24:16.290Z,16.33
2022-12-04T20:26:46.239Z,17.73
2022-12-04T20:29:16.085Z,18.03
2022-12-04T20:31:46.076Z,16.57
2022-12-04T20:34:17.477Z,15.60
2022-12-04T20:36:47.093Z,16.37
2022-12-04T20:39:20.129Z,15.30
2022-12-04T20:41:48.527Z,16.40
2022-12-04T20:44:18.797Z,14.77
2022-12-04T20:46:46.913Z,16.07
2022-12-04T20:49:21.301Z,18.60
2022-12-04T20:51:51.456Z,18.77
2022-12-04T20:54:22.651Z,18.77
2022-12-04T20:56:52.671Z,18.33
2022-12-04T20:59:22.237Z,17.77
2022-12-04T21:01:51.399Z,18.50
2022-12-04T21:04:19.739Z,17.83
2022-12-04T21:06:47.806Z,17.83
2022-12-04T21:09:17.668Z,21.33
2022-12-04T21:11:48.185Z,18.03
2022-12-04T21:14:35.787Z,18.23
2022-12-04T21:17:03.870Z,17.27
2022-12-04T21:19:32.141Z,18.20
2022-12-04T21:22:00.048Z,19.13
2022-12-04T21:24:28.666Z,17.03
2022-12-04T21:26:57.673Z,19.03
2022-12-04T21:29:25.446Z,18.70
2022-12-04T21:31:53.216Z,21.17
2022-12-04T21:34:20.951Z,18.03
2022-12-04T21:36:48.757Z,18.63
2022-12-04T21:39:16.862Z,18.87
2022-12-04T21:42:02.128Z,19.07
2022-12-04T21:44:31.456Z,18.53
2022-12-04T21:46:59.428Z,19.27
2022-12-04T21:49:27.625Z,18.63
2022-12-04T21:51:58.104Z,19.00
2022-12-04T21:54:27.125Z,18.80
2022-12-04T21:56:55.534Z,18.23
2022-12-04T21:59:23.582Z,20.10
2022-12-04T22:01:53.244Z,16.17
2022-12-04T22:04:21.031Z,21.53
2022-12-04T22:06:48.717Z,20.57
2022-12-04T22:09:16.558Z,19.40
2022-12-04T22:11:44.641Z,19.73
2022-12-04T22:14:13.534Z,19.67
2022-12-04T22:16:43.029Z,19.97
2022-12-04T22:19:13.280Z,19.00
2022-12-04T22:21:41.309Z,20.30
2022-12-04T22:24:10.765Z,19.33
2022-12-04T22:26:39.404Z,20.33
2022-12-04T22:29:34.110Z,21.53
2022-12-04T22:31:55.371Z,22.20
2022-12-04T22:34:24.525Z,23.60
2022-12-04T22:36:52.256Z,23.00
2022-12-04T22:39:19.970Z,24.57
2022-12-04T22:41:47.763Z,24.30
2022-12-04T22:44:15.445Z,23.70
2022-12-04T22:46:43.308Z,23.77
2022-12-04T22:49:11.128Z,22.80
2022-12-04T22:51:40.248Z,26.33
2022-12-04T22:54:08.282Z,26.73
2022-12-04T22:56:35.981Z,23.47
2022-12-04T22:59:03.809Z,25.57
2022-12-04T23:01:33.609Z,24.60
2022-12-04T23:04:02.709Z,25.27
2022-12-04T23:06:32.422Z,24.80
2022-12-04T23:09:03.629Z,24.33
2022-12-04T23:11:31.614Z,25.40
2022-12-04T23:14:01.063Z,25.83
2022-12-04T23:19:13.135Z,27.07
2022-12-04T23:21:41.769Z,25.77
2022-12-04T23:24:11.503Z,26.77
2022-12-04T23:26:41.656Z,27.30
2022-12-04T23:29:29.668Z,25.80
2022-12-04T23:31:57.303Z,27.60
2022-12-04T23:34:25.590Z,24.53
2022-12-04T23:36:53.356Z,26.03
2022-12-04T23:39:22.403Z,27.10
2022-12-04T23:41:50.145Z,25.10
2022-12-04T23:44:17.934Z,26.37
2022-12-04T23:46:45.658Z,25.60
2022-12-04T23:49:13.604Z,26.40
2022-12-04T23:51:41.326Z,25.73
2022-12-04T23:54:09.085Z,26.13
2022-12-04T23:56:38.157Z,26.53
2022-12-04T23:59:05.877Z,27.90
